sensor_id;sensor_type;location;lat;lon;timestamp;temperature;humidity
9542;DHT22;4809;48.224;8.572;2023-06-04T00:02:17;14.90;82.90
9542;DHT22;4809;48.224;8.572;2023-06-04T00:04:43;14.90;82.80
9542;DHT22;4809;48.224;8.572;2023-06-04T00:07:08;14.90;82.60
9542;DHT22;4809;48.224;8.572;2023-06-04T00:09:34;14.90;83.00
9542;DHT22;4809;48.224;8.572;2023-06-04T00:12:00;15.00;83.10
9542;DHT22;4809;48.224;8.572;2023-06-04T00:14:25;15.00;83.60
9542;DHT22;4809;48.224;8.572;2023-06-04T00:16:51;15.00;83.60
9542;DHT22;4809;48.224;8.572;2023-06-04T00:19:17;15.00;83.70
9542;DHT22;4809;48.224;8.572;2023-06-04T00:21:42;15.10;83.70
9542;DHT22;4809;48.224;8.572;2023-06-04T00:24:08;15.10;84.30
9542;DHT22;4809;48.224;8.572;2023-06-04T00:26:37;15.00;83.70
9542;DHT22;4809;48.224;8.572;2023-06-04T00:29:03;15.10;85.00
9542;DHT22;4809;48.224;8.572;2023-06-04T00:31:29;15.00;84.30
9542;DHT22;4809;48.224;8.572;2023-06-04T00:33:54;15.00;84.20
9542;DHT22;4809;48.224;8.572;2023-06-04T00:36:20;14.90;84.20
9542;DHT22;4809;48.224;8.572;2023-06-04T00:38:46;14.70;85.00
9542;DHT22;4809;48.224;8.572;2023-06-04T00:41:12;14.60;85.20
9542;DHT22;4809;48.224;8.572;2023-06-04T00:43:40;14.60;86.80
9542;DHT22;4809;48.224;8.572;2023-06-04T00:46:11;14.60;87.40
9542;DHT22;4809;48.224;8.572;2023-06-04T00:48:44;14.60;87.30
9542;DHT22;4809;48.224;8.572;2023-06-04T00:51:11;14.60;87.30
9542;DHT22;4809;48.224;8.572;2023-06-04T00:53:38;14.50;87.10
9542;DHT22;4809;48.224;8.572;2023-06-04T00:56:04;14.50;87.30
9542;DHT22;4809;48.224;8.572;2023-06-04T00:58:32;14.30;87.50
9542;DHT22;4809;48.224;8.572;2023-06-04T01:00:59;14.30;87.90
9542;DHT22;4809;48.224;8.572;2023-06-04T01:03:28;14.30;88.40
9542;DHT22;4809;48.224;8.572;2023-06-04T01:06:21;14.20;88.30
9542;DHT22;4809;48.224;8.572;2023-06-04T01:08:51;14.20;88.70
9542;DHT22;4809;48.224;8.572;2023-06-04T01:11:34;14.10;90.00
9542;DHT22;4809;48.224;8.572;2023-06-04T01:14:01;13.90;90.00
9542;DHT22;4809;48.224;8.572;2023-06-04T01:16:30;13.80;90.30
9542;DHT22;4809;48.224;8.572;2023-06-04T01:19:01;13.80;90.40
9542;DHT22;4809;48.224;8.572;2023-06-04T01:21:30;13.70;90.50
9542;DHT22;4809;48.224;8.572;2023-06-04T01:24:01;13.50;91.00
9542;DHT22;4809;48.224;8.572;2023-06-04T01:26:31;13.50;91.10
9542;DHT22;4809;48.224;8.572;2023-06-04T01:28:57;13.50;91.40
9542;DHT22;4809;48.224;8.572;2023-06-04T01:31:24;13.50;91.50
9542;DHT22;4809;48.224;8.572;2023-06-04T01:33:55;13.50;91.40
9542;DHT22;4809;48.224;8.572;2023-06-04T01:36:23;13.50;91.50
9542;DHT22;4809;48.224;8.572;2023-06-04T01:38:49;13.50;91.80
9542;DHT22;4809;48.224;8.572;2023-06-04T01:41:15;13.40;91.80
9542;DHT22;4809;48.224;8.572;2023-06-04T01:43:41;13.40;92.00
9542;DHT22;4809;48.224;8.572;2023-06-04T01:46:07;13.30;92.30
9542;DHT22;4809;48.224;8.572;2023-06-04T01:48:33;13.10;92.60
9542;DHT22;4809;48.224;8.572;2023-06-04T01:50:58;13.00;93.00
9542;DHT22;4809;48.224;8.572;2023-06-04T01:53:24;12.90;93.40
9542;DHT22;4809;48.224;8.572;2023-06-04T01:55:50;12.70;93.60
9542;DHT22;4809;48.224;8.572;2023-06-04T01:58:16;12.70;93.80
9542;DHT22;4809;48.224;8.572;2023-06-04T02:00:53;12.70;93.90
9542;DHT22;4809;48.224;8.572;2023-06-04T02:03:20;12.70;94.10
9542;DHT22;4809;48.224;8.572;2023-06-04T02:05:47;12.70;94.20
9542;DHT22;4809;48.224;8.572;2023-06-04T02:08:16;12.70;94.30
9542;DHT22;4809;48.224;8.572;2023-06-04T02:10:46;12.70;94.40
9542;DHT22;4809;48.224;8.572;2023-06-04T02:13:12;12.70;94.60
9542;DHT22;4809;48.224;8.572;2023-06-04T02:15:38;12.60;94.70
9542;DHT22;4809;48.224;8.572;2023-06-04T02:18:18;12.60;94.80
9542;DHT22;4809;48.224;8.572;2023-06-04T02:20:47;12.60;95.10
9542;DHT22;4809;48.224;8.572;2023-06-04T02:23:14;12.50;95.40
9542;DHT22;4809;48.224;8.572;2023-06-04T02:25:40;12.40;95.50
9542;DHT22;4809;48.224;8.572;2023-06-04T02:28:06;12.40;95.70
9542;DHT22;4809;48.224;8.572;2023-06-04T02:30:32;12.40;96.00
9542;DHT22;4809;48.224;8.572;2023-06-04T02:32:58;12.40;96.00
9542;DHT22;4809;48.224;8.572;2023-06-04T02:35:27;12.40;96.10
9542;DHT22;4809;48.224;8.572;2023-06-04T02:37:52;12.30;96.20
9542;DHT22;4809;48.224;8.572;2023-06-04T02:40:18;12.30;96.90
9542;DHT22;4809;48.224;8.572;2023-06-04T02:42:44;12.20;96.90
9542;DHT22;4809;48.224;8.572;2023-06-04T02:45:10;12.30;97.00
9542;DHT22;4809;48.224;8.572;2023-06-04T02:47:37;12.30;97.20
9542;DHT22;4809;48.224;8.572;2023-06-04T02:50:02;12.30;97.20
9542;DHT22;4809;48.224;8.572;2023-06-04T02:52:29;12.30;97.30
9542;DHT22;4809;48.224;8.572;2023-06-04T02:54:56;12.40;97.20
9542;DHT22;4809;48.224;8.572;2023-06-04T02:57:22;12.40;97.40
9542;DHT22;4809;48.224;8.572;2023-06-04T02:59:48;12.40;97.30
9542;DHT22;4809;48.224;8.572;2023-06-04T03:02:14;12.50;97.20
9542;DHT22;4809;48.224;8.572;2023-06-04T03:04:41;12.60;96.70
9542;DHT22;4809;48.224;8.572;2023-06-04T03:07:08;12.60;96.80
9542;DHT22;4809;48.224;8.572;2023-06-04T03:09:36;12.50;97.20
9542;DHT22;4809;48.224;8.572;2023-06-04T03:12:03;12.50;97.60
9542;DHT22;4809;48.224;8.572;2023-06-04T03:14:29;12.50;97.70
9542;DHT22;4809;48.224;8.572;2023-06-04T03:17:01;12.40;98.10
9542;DHT22;4809;48.224;8.572;2023-06-04T03:19:36;12.40;98.50
9542;DHT22;4809;48.224;8.572;2023-06-04T03:22:04;12.30;98.80
9542;DHT22;4809;48.224;8.572;2023-06-04T03:24:38;12.30;98.80
9542;DHT22;4809;48.224;8.572;2023-06-04T03:27:04;12.40;98.70
9542;DHT22;4809;48.224;8.572;2023-06-04T03:29:31;12.40;98.80
9542;DHT22;4809;48.224;8.572;2023-06-04T03:31:57;12.40;98.70
9542;DHT22;4809;48.224;8.572;2023-06-04T03:34:23;12.40;98.90
9542;DHT22;4809;48.224;8.572;2023-06-04T03:36:53;12.40;98.90
9542;DHT22;4809;48.224;8.572;2023-06-04T03:39:19;12.40;99.00
9542;DHT22;4809;48.224;8.572;2023-06-04T03:41:45;12.50;98.90
9542;DHT22;4809;48.224;8.572;2023-06-04T03:44:15;12.50;99.00
9542;DHT22;4809;48.224;8.572;2023-06-04T03:46:42;12.50;99.20
9542;DHT22;4809;48.224;8.572;2023-06-04T03:49:09;12.50;99.60
9542;DHT22;4809;48.224;8.572;2023-06-04T03:51:35;12.50;99.60
9542;DHT22;4809;48.224;8.572;2023-06-04T03:54:02;12.50;99.90
9542;DHT22;4809;48.224;8.572;2023-06-04T03:56:27;12.40;99.90
9542;DHT22;4809;48.224;8.572;2023-06-04T03:58:54;12.50;99.90
9542;DHT22;4809;48.224;8.572;2023-06-04T04:01:20;12.50;99.90
9542;DHT22;4809;48.224;8.572;2023-06-04T04:03:45;12.60;99.90
9542;DHT22;4809;48.224;8.572;2023-06-04T04:06:15;12.70;99.90
9542;DHT22;4809;48.224;8.572;2023-06-04T04:08:41;12.70;99.90
9542;DHT22;4809;48.224;8.572;2023-06-04T04:11:15;12.90;99.90
9542;DHT22;4809;48.224;8.572;2023-06-04T04:13:41;13.00;99.70
9542;DHT22;4809;48.224;8.572;2023-06-04T04:16:07;13.20;99.30
9542;DHT22;4809;48.224;8.572;2023-06-04T04:18:36;13.30;99.00
9542;DHT22;4809;48.224;8.572;2023-06-04T04:21:03;13.50;99.00
9542;DHT22;4809;48.224;8.572;2023-06-04T04:23:29;13.60;98.80
9542;DHT22;4809;48.224;8.572;2023-06-04T04:25:55;13.70;97.90
9542;DHT22;4809;48.224;8.572;2023-06-04T04:28:25;13.80;97.30
9542;DHT22;4809;48.224;8.572;2023-06-04T04:30:54;13.80;96.70
9542;DHT22;4809;48.224;8.572;2023-06-04T04:33:22;13.90;96.40
9542;DHT22;4809;48.224;8.572;2023-06-04T04:35:50;13.90;96.20
9542;DHT22;4809;48.224;8.572;2023-06-04T04:38:18;14.00;95.80
9542;DHT22;4809;48.224;8.572;2023-06-04T04:40:44;14.10;95.70
9542;DHT22;4809;48.224;8.572;2023-06-04T04:43:13;14.10;95.50
9542;DHT22;4809;48.224;8.572;2023-06-04T04:45:39;14.20;95.40
9542;DHT22;4809;48.224;8.572;2023-06-04T04:48:05;14.30;95.40
9542;DHT22;4809;48.224;8.572;2023-06-04T04:50:30;14.40;95.70
9542;DHT22;4809;48.224;8.572;2023-06-04T04:52:58;14.50;94.90
9542;DHT22;4809;48.224;8.572;2023-06-04T04:55:23;14.50;94.60
9542;DHT22;4809;48.224;8.572;2023-06-04T04:57:49;14.60;95.20
9542;DHT22;4809;48.224;8.572;2023-06-04T05:00:15;14.70;93.60
9542;DHT22;4809;48.224;8.572;2023-06-04T05:02:41;14.70;93.30
9542;DHT22;4809;48.224;8.572;2023-06-04T05:05:07;14.80;93.20
9542;DHT22;4809;48.224;8.572;2023-06-04T05:07:32;14.90;93.10
9542;DHT22;4809;48.224;8.572;2023-06-04T05:09:58;15.00;92.60
9542;DHT22;4809;48.224;8.572;2023-06-04T05:12:30;15.10;92.20
9542;DHT22;4809;48.224;8.572;2023-06-04T05:14:57;15.10;92.00
9542;DHT22;4809;48.224;8.572;2023-06-04T05:17:22;15.20;92.10
9542;DHT22;4809;48.224;8.572;2023-06-04T05:19:58;15.20;92.00
9542;DHT22;4809;48.224;8.572;2023-06-04T05:22:29;15.30;91.80
9542;DHT22;4809;48.224;8.572;2023-06-04T05:24:57;15.40;91.60
9542;DHT22;4809;48.224;8.572;2023-06-04T05:27:25;15.40;91.70
9542;DHT22;4809;48.224;8.572;2023-06-04T05:29:51;15.50;91.50
9542;DHT22;4809;48.224;8.572;2023-06-04T05:32:16;15.60;91.60
9542;DHT22;4809;48.224;8.572;2023-06-04T05:34:43;15.70;91.30
9542;DHT22;4809;48.224;8.572;2023-06-04T05:37:09;15.90;91.00
9542;DHT22;4809;48.224;8.572;2023-06-04T05:39:34;15.90;90.60
9542;DHT22;4809;48.224;8.572;2023-06-04T05:42:01;16.10;90.00
9542;DHT22;4809;48.224;8.572;2023-06-04T05:44:27;16.10;89.70
9542;DHT22;4809;48.224;8.572;2023-06-04T05:46:53;16.10;88.80
9542;DHT22;4809;48.224;8.572;2023-06-04T05:49:18;16.30;89.40
9542;DHT22;4809;48.224;8.572;2023-06-04T05:51:45;16.40;89.70
9542;DHT22;4809;48.224;8.572;2023-06-04T05:54:11;16.50;87.70
9542;DHT22;4809;48.224;8.572;2023-06-04T05:56:36;16.60;87.40
9542;DHT22;4809;48.224;8.572;2023-06-04T05:59:02;16.70;87.60
9542;DHT22;4809;48.224;8.572;2023-06-04T06:01:27;16.90;88.30
9542;DHT22;4809;48.224;8.572;2023-06-04T06:03:54;17.10;86.30
9542;DHT22;4809;48.224;8.572;2023-06-04T06:06:20;17.20;86.10
9542;DHT22;4809;48.224;8.572;2023-06-04T06:08:46;17.20;85.40
9542;DHT22;4809;48.224;8.572;2023-06-04T06:11:12;17.40;85.40
9542;DHT22;4809;48.224;8.572;2023-06-04T06:13:38;17.60;84.10
9542;DHT22;4809;48.224;8.572;2023-06-04T06:16:03;17.70;83.60
9542;DHT22;4809;48.224;8.572;2023-06-04T06:18:30;17.80;82.70
9542;DHT22;4809;48.224;8.572;2023-06-04T06:20:56;18.00;82.40
9542;DHT22;4809;48.224;8.572;2023-06-04T06:23:21;18.20;82.20
9542;DHT22;4809;48.224;8.572;2023-06-04T06:25:49;18.40;81.40
9542;DHT22;4809;48.224;8.572;2023-06-04T06:28:16;18.60;81.30
9542;DHT22;4809;48.224;8.572;2023-06-04T06:30:42;18.70;80.80
9542;DHT22;4809;48.224;8.572;2023-06-04T06:33:07;18.80;80.00
9542;DHT22;4809;48.224;8.572;2023-06-04T06:35:33;19.00;80.00
9542;DHT22;4809;48.224;8.572;2023-06-04T06:37:59;19.10;78.60
9542;DHT22;4809;48.224;8.572;2023-06-04T06:40:25;19.30;79.90
9542;DHT22;4809;48.224;8.572;2023-06-04T06:42:50;19.50;77.70
9542;DHT22;4809;48.224;8.572;2023-06-04T06:45:17;19.60;76.30
9542;DHT22;4809;48.224;8.572;2023-06-04T06:47:44;19.60;76.20
9542;DHT22;4809;48.224;8.572;2023-06-04T06:50:10;19.20;76.80
9542;DHT22;4809;48.224;8.572;2023-06-04T06:52:36;18.90;79.20
9542;DHT22;4809;48.224;8.572;2023-06-04T06:55:03;18.70;79.10
9542;DHT22;4809;48.224;8.572;2023-06-04T06:57:29;18.90;78.60
9542;DHT22;4809;48.224;8.572;2023-06-04T06:59:55;19.30;79.90
9542;DHT22;4809;48.224;8.572;2023-06-04T07:02:21;19.60;77.50
9542;DHT22;4809;48.224;8.572;2023-06-04T07:04:47;19.90;76.10
9542;DHT22;4809;48.224;8.572;2023-06-04T07:07:13;20.20;76.30
9542;DHT22;4809;48.224;8.572;2023-06-04T07:09:39;20.30;74.20
9542;DHT22;4809;48.224;8.572;2023-06-04T07:12:05;20.10;74.10
9542;DHT22;4809;48.224;8.572;2023-06-04T07:14:31;20.20;76.00
9542;DHT22;4809;48.224;8.572;2023-06-04T07:16:57;20.40;74.80
9542;DHT22;4809;48.224;8.572;2023-06-04T07:19:23;20.50;75.90
9542;DHT22;4809;48.224;8.572;2023-06-04T07:21:49;20.70;73.70
9542;DHT22;4809;48.224;8.572;2023-06-04T07:24:15;21.00;74.70
9542;DHT22;4809;48.224;8.572;2023-06-04T07:26:40;21.10;72.70
9542;DHT22;4809;48.224;8.572;2023-06-04T07:29:06;21.20;71.40
9542;DHT22;4809;48.224;8.572;2023-06-04T07:31:32;21.20;71.10
9542;DHT22;4809;48.224;8.572;2023-06-04T07:33:58;21.20;70.10
9542;DHT22;4809;48.224;8.572;2023-06-04T07:36:23;21.30;71.50
9542;DHT22;4809;48.224;8.572;2023-06-04T07:38:49;21.40;68.80
9542;DHT22;4809;48.224;8.572;2023-06-04T07:41:15;21.50;71.70
9542;DHT22;4809;48.224;8.572;2023-06-04T07:43:40;21.40;72.20
9542;DHT22;4809;48.224;8.572;2023-06-04T07:46:07;21.50;69.20
9542;DHT22;4809;48.224;8.572;2023-06-04T07:48:34;21.50;70.30
9542;DHT22;4809;48.224;8.572;2023-06-04T07:51:01;21.60;73.50
9542;DHT22;4809;48.224;8.572;2023-06-04T07:53:28;21.80;74.40
9542;DHT22;4809;48.224;8.572;2023-06-04T07:55:54;21.90;71.80
9542;DHT22;4809;48.224;8.572;2023-06-04T07:58:20;22.10;69.10
9542;DHT22;4809;48.224;8.572;2023-06-04T08:00:46;22.40;71.40
9542;DHT22;4809;48.224;8.572;2023-06-04T08:03:12;22.50;69.60
9542;DHT22;4809;48.224;8.572;2023-06-04T08:05:37;22.60;68.20
9542;DHT22;4809;48.224;8.572;2023-06-04T08:08:03;22.70;69.50
9542;DHT22;4809;48.224;8.572;2023-06-04T08:10:30;22.70;66.50
9542;DHT22;4809;48.224;8.572;2023-06-04T08:12:56;22.80;70.10
9542;DHT22;4809;48.224;8.572;2023-06-04T08:15:22;22.90;69.00
9542;DHT22;4809;48.224;8.572;2023-06-04T08:17:48;22.80;68.50
9542;DHT22;4809;48.224;8.572;2023-06-04T08:20:13;22.80;68.60
9542;DHT22;4809;48.224;8.572;2023-06-04T08:22:39;23.10;67.50
9542;DHT22;4809;48.224;8.572;2023-06-04T08:25:06;23.20;67.40
9542;DHT22;4809;48.224;8.572;2023-06-04T08:27:32;23.30;68.10
9542;DHT22;4809;48.224;8.572;2023-06-04T08:29:57;23.50;68.10
9542;DHT22;4809;48.224;8.572;2023-06-04T08:32:23;23.70;68.70
9542;DHT22;4809;48.224;8.572;2023-06-04T08:34:49;23.90;68.30
9542;DHT22;4809;48.224;8.572;2023-06-04T08:37:16;23.80;64.20
9542;DHT22;4809;48.224;8.572;2023-06-04T08:39:42;23.90;64.80
9542;DHT22;4809;48.224;8.572;2023-06-04T08:42:15;23.90;64.60
9542;DHT22;4809;48.224;8.572;2023-06-04T08:44:43;23.80;65.20
9542;DHT22;4809;48.224;8.572;2023-06-04T08:47:13;23.90;67.80
9542;DHT22;4809;48.224;8.572;2023-06-04T08:49:40;24.10;65.40
9542;DHT22;4809;48.224;8.572;2023-06-04T08:52:08;24.20;62.60
9542;DHT22;4809;48.224;8.572;2023-06-04T08:54:33;24.20;63.50
9542;DHT22;4809;48.224;8.572;2023-06-04T08:57:00;24.40;63.80
9542;DHT22;4809;48.224;8.572;2023-06-04T08:59:27;24.40;64.70
9542;DHT22;4809;48.224;8.572;2023-06-04T09:01:56;24.20;64.90
9542;DHT22;4809;48.224;8.572;2023-06-04T09:04:24;24.40;64.70
9542;DHT22;4809;48.224;8.572;2023-06-04T09:06:50;24.50;64.40
9542;DHT22;4809;48.224;8.572;2023-06-04T09:09:17;24.80;64.30
9542;DHT22;4809;48.224;8.572;2023-06-04T09:11:50;25.00;62.50
9542;DHT22;4809;48.224;8.572;2023-06-04T09:14:16;25.20;61.50
9542;DHT22;4809;48.224;8.572;2023-06-04T09:16:44;25.30;60.10
9542;DHT22;4809;48.224;8.572;2023-06-04T09:19:09;25.60;60.90
9542;DHT22;4809;48.224;8.572;2023-06-04T09:21:52;25.70;60.20
9542;DHT22;4809;48.224;8.572;2023-06-04T09:24:19;25.90;60.50
9542;DHT22;4809;48.224;8.572;2023-06-04T09:26:46;25.90;57.40
9542;DHT22;4809;48.224;8.572;2023-06-04T09:29:12;25.80;58.00
9542;DHT22;4809;48.224;8.572;2023-06-04T09:31:37;25.60;58.10
9542;DHT22;4809;48.224;8.572;2023-06-04T09:34:05;25.70;57.80
9542;DHT22;4809;48.224;8.572;2023-06-04T09:36:35;25.90;58.00
9542;DHT22;4809;48.224;8.572;2023-06-04T09:39:02;25.60;55.20
9542;DHT22;4809;48.224;8.572;2023-06-04T09:41:28;25.50;58.20
9542;DHT22;4809;48.224;8.572;2023-06-04T09:44:01;25.70;58.40
9542;DHT22;4809;48.224;8.572;2023-06-04T09:46:31;25.80;59.20
9542;DHT22;4809;48.224;8.572;2023-06-04T09:49:02;26.30;58.50
9542;DHT22;4809;48.224;8.572;2023-06-04T09:51:28;26.50;55.30
9542;DHT22;4809;48.224;8.572;2023-06-04T09:53:58;26.90;57.30
9542;DHT22;4809;48.224;8.572;2023-06-04T09:56:24;27.20;55.40
9542;DHT22;4809;48.224;8.572;2023-06-04T09:58:55;27.30;55.00
9542;DHT22;4809;48.224;8.572;2023-06-04T10:01:23;27.20;55.10
9542;DHT22;4809;48.224;8.572;2023-06-04T10:03:52;27.00;56.30
9542;DHT22;4809;48.224;8.572;2023-06-04T10:06:19;26.70;54.80
9542;DHT22;4809;48.224;8.572;2023-06-04T10:08:46;26.40;55.80
9542;DHT22;4809;48.224;8.572;2023-06-04T10:11:13;26.60;55.70
9542;DHT22;4809;48.224;8.572;2023-06-04T10:13:50;26.50;55.20
9542;DHT22;4809;48.224;8.572;2023-06-04T10:16:19;26.80;55.20
9542;DHT22;4809;48.224;8.572;2023-06-04T10:18:47;27.20;55.30
9542;DHT22;4809;48.224;8.572;2023-06-04T10:21:14;27.60;54.50
9542;DHT22;4809;48.224;8.572;2023-06-04T10:23:40;27.40;52.40
9542;DHT22;4809;48.224;8.572;2023-06-04T10:26:16;27.70;55.60
9542;DHT22;4809;48.224;8.572;2023-06-04T10:28:42;27.90;56.30
9542;DHT22;4809;48.224;8.572;2023-06-04T10:31:12;28.20;53.20
9542;DHT22;4809;48.224;8.572;2023-06-04T10:33:39;28.50;53.30
9542;DHT22;4809;48.224;8.572;2023-06-04T10:36:20;28.70;50.90
9542;DHT22;4809;48.224;8.572;2023-06-04T10:38:50;29.00;53.00
9542;DHT22;4809;48.224;8.572;2023-06-04T10:41:17;29.10;51.90
9542;DHT22;4809;48.224;8.572;2023-06-04T10:43:45;28.90;51.80
9542;DHT22;4809;48.224;8.572;2023-06-04T10:46:15;28.70;49.60
9542;DHT22;4809;48.224;8.572;2023-06-04T10:49:00;28.80;51.80
9542;DHT22;4809;48.224;8.572;2023-06-04T10:51:32;29.20;50.90
9542;DHT22;4809;48.224;8.572;2023-06-04T10:54:00;29.30;49.80
9542;DHT22;4809;48.224;8.572;2023-06-04T10:56:31;29.00;48.10
9542;DHT22;4809;48.224;8.572;2023-06-04T10:59:12;28.30;48.30
9542;DHT22;4809;48.224;8.572;2023-06-04T11:01:38;27.80;48.60
9542;DHT22;4809;48.224;8.572;2023-06-04T11:04:04;27.10;49.30
9542;DHT22;4809;48.224;8.572;2023-06-04T11:06:29;26.60;49.80
9542;DHT22;4809;48.224;8.572;2023-06-04T11:09:03;26.40;51.90
9542;DHT22;4809;48.224;8.572;2023-06-04T11:11:29;26.20;51.70
9542;DHT22;4809;48.224;8.572;2023-06-04T11:13:55;26.30;52.60
9542;DHT22;4809;48.224;8.572;2023-06-04T11:16:21;26.50;50.30
9542;DHT22;4809;48.224;8.572;2023-06-04T11:18:56;27.10;50.80
9542;DHT22;4809;48.224;8.572;2023-06-04T11:21:24;28.00;52.00
9542;DHT22;4809;48.224;8.572;2023-06-04T11:23:56;28.60;48.00
9542;DHT22;4809;48.224;8.572;2023-06-04T11:26:28;28.40;47.70
9542;DHT22;4809;48.224;8.572;2023-06-04T11:28:54;28.00;47.20
9542;DHT22;4809;48.224;8.572;2023-06-04T11:31:20;27.90;48.20
9542;DHT22;4809;48.224;8.572;2023-06-04T11:33:47;27.80;47.50
9542;DHT22;4809;48.224;8.572;2023-06-04T11:36:24;27.90;50.30
9542;DHT22;4809;48.224;8.572;2023-06-04T11:38:59;28.40;49.80
9542;DHT22;4809;48.224;8.572;2023-06-04T11:41:31;28.80;48.00
9542;DHT22;4809;48.224;8.572;2023-06-04T11:44:00;29.20;48.30
9542;DHT22;4809;48.224;8.572;2023-06-04T11:46:26;29.40;46.10
9542;DHT22;4809;48.224;8.572;2023-06-04T11:48:52;29.70;45.00
9542;DHT22;4809;48.224;8.572;2023-06-04T11:51:22;29.80;47.10
9542;DHT22;4809;48.224;8.572;2023-06-04T11:53:48;29.90;43.60
9542;DHT22;4809;48.224;8.572;2023-06-04T11:56:15;30.30;46.10
9542;DHT22;4809;48.224;8.572;2023-06-04T11:58:42;30.50;43.60
9542;DHT22;4809;48.224;8.572;2023-06-04T12:01:08;30.40;43.40
9542;DHT22;4809;48.224;8.572;2023-06-04T12:03:39;30.30;43.80
9542;DHT22;4809;48.224;8.572;2023-06-04T12:06:15;29.90;43.80
9542;DHT22;4809;48.224;8.572;2023-06-04T12:08:49;30.10;44.00
9542;DHT22;4809;48.224;8.572;2023-06-04T12:11:34;30.40;45.30
9542;DHT22;4809;48.224;8.572;2023-06-04T12:14:07;30.50;42.80
9542;DHT22;4809;48.224;8.572;2023-06-04T12:16:33;30.70;42.70
9542;DHT22;4809;48.224;8.572;2023-06-04T12:19:09;30.70;42.70
9542;DHT22;4809;48.224;8.572;2023-06-04T12:21:35;30.50;41.00
9542;DHT22;4809;48.224;8.572;2023-06-04T12:24:09;30.60;44.80
9542;DHT22;4809;48.224;8.572;2023-06-04T12:26:36;30.90;44.20
9542;DHT22;4809;48.224;8.572;2023-06-04T12:29:16;30.90;41.40
9542;DHT22;4809;48.224;8.572;2023-06-04T12:31:44;30.10;41.70
9542;DHT22;4809;48.224;8.572;2023-06-04T12:34:11;29.80;42.40
9542;DHT22;4809;48.224;8.572;2023-06-04T12:36:37;30.00;42.20
9542;DHT22;4809;48.224;8.572;2023-06-04T12:39:04;30.00;43.80
9542;DHT22;4809;48.224;8.572;2023-06-04T12:41:31;29.80;44.00
9542;DHT22;4809;48.224;8.572;2023-06-04T12:43:57;29.80;42.70
9542;DHT22;4809;48.224;8.572;2023-06-04T12:46:23;29.50;42.90
9542;DHT22;4809;48.224;8.572;2023-06-04T12:48:53;29.40;44.20
9542;DHT22;4809;48.224;8.572;2023-06-04T12:51:20;29.20;44.10
9542;DHT22;4809;48.224;8.572;2023-06-04T12:53:46;29.50;43.70
9542;DHT22;4809;48.224;8.572;2023-06-04T12:56:12;30.10;43.70
9542;DHT22;4809;48.224;8.572;2023-06-04T12:58:38;30.30;42.40
9542;DHT22;4809;48.224;8.572;2023-06-04T13:01:04;30.60;39.90
9542;DHT22;4809;48.224;8.572;2023-06-04T13:03:30;30.80;43.80
9542;DHT22;4809;48.224;8.572;2023-06-04T13:05:57;30.90;42.20
9542;DHT22;4809;48.224;8.572;2023-06-04T13:08:23;30.30;40.50
9542;DHT22;4809;48.224;8.572;2023-06-04T13:10:50;29.60;41.80
9542;DHT22;4809;48.224;8.572;2023-06-04T13:13:17;28.90;42.10
9542;DHT22;4809;48.224;8.572;2023-06-04T13:15:43;28.50;43.30
9542;DHT22;4809;48.224;8.572;2023-06-04T13:18:09;27.90;43.40
9542;DHT22;4809;48.224;8.572;2023-06-04T13:20:35;27.70;45.00
9542;DHT22;4809;48.224;8.572;2023-06-04T13:23:02;27.60;44.40
9542;DHT22;4809;48.224;8.572;2023-06-04T13:25:27;27.40;44.20
9542;DHT22;4809;48.224;8.572;2023-06-04T13:27:58;27.10;44.40
9542;DHT22;4809;48.224;8.572;2023-06-04T13:30:24;26.90;44.40
9542;DHT22;4809;48.224;8.572;2023-06-04T13:32:50;26.80;45.00
9542;DHT22;4809;48.224;8.572;2023-06-04T13:35:16;26.60;45.00
9542;DHT22;4809;48.224;8.572;2023-06-04T13:37:41;26.40;45.30
9542;DHT22;4809;48.224;8.572;2023-06-04T13:40:07;26.30;47.00
9542;DHT22;4809;48.224;8.572;2023-06-04T13:42:33;26.10;47.10
9542;DHT22;4809;48.224;8.572;2023-06-04T13:44:59;25.90;46.10
9542;DHT22;4809;48.224;8.572;2023-06-04T13:47:25;25.70;46.30
9542;DHT22;4809;48.224;8.572;2023-06-04T13:49:51;25.60;46.30
9542;DHT22;4809;48.224;8.572;2023-06-04T13:52:17;25.50;46.10
9542;DHT22;4809;48.224;8.572;2023-06-04T13:54:43;25.40;47.00
9542;DHT22;4809;48.224;8.572;2023-06-04T13:57:09;25.20;48.00
9542;DHT22;4809;48.224;8.572;2023-06-04T13:59:40;25.10;47.60
9542;DHT22;4809;48.224;8.572;2023-06-04T14:02:06;24.90;47.30
9542;DHT22;4809;48.224;8.572;2023-06-04T14:04:32;24.80;47.40
9542;DHT22;4809;48.224;8.572;2023-06-04T14:06:58;24.60;48.30
9542;DHT22;4809;48.224;8.572;2023-06-04T14:09:24;24.50;48.40
9542;DHT22;4809;48.224;8.572;2023-06-04T14:11:50;24.40;47.90
9542;DHT22;4809;48.224;8.572;2023-06-04T14:14:17;24.30;48.70
9542;DHT22;4809;48.224;8.572;2023-06-04T14:16:44;24.10;48.40
9542;DHT22;4809;48.224;8.572;2023-06-04T14:19:10;23.90;49.60
9542;DHT22;4809;48.224;8.572;2023-06-04T14:21:35;23.90;50.20
9542;DHT22;4809;48.224;8.572;2023-06-04T14:24:02;23.70;49.90
9542;DHT22;4809;48.224;8.572;2023-06-04T14:26:28;23.70;51.30
9542;DHT22;4809;48.224;8.572;2023-06-04T14:28:55;23.70;50.50
9542;DHT22;4809;48.224;8.572;2023-06-04T14:31:21;23.50;49.40
9542;DHT22;4809;48.224;8.572;2023-06-04T14:33:46;23.50;50.50
9542;DHT22;4809;48.224;8.572;2023-06-04T14:36:12;23.40;50.30
9542;DHT22;4809;48.224;8.572;2023-06-04T14:38:38;23.30;50.30
9542;DHT22;4809;48.224;8.572;2023-06-04T14:41:04;23.40;51.50
9542;DHT22;4809;48.224;8.572;2023-06-04T14:43:30;23.30;51.40
9542;DHT22;4809;48.224;8.572;2023-06-04T14:45:56;23.30;52.20
9542;DHT22;4809;48.224;8.572;2023-06-04T14:48:21;23.30;52.10
9542;DHT22;4809;48.224;8.572;2023-06-04T14:50:47;23.30;51.90
9542;DHT22;4809;48.224;8.572;2023-06-04T14:53:13;23.30;53.10
9542;DHT22;4809;48.224;8.572;2023-06-04T14:55:39;23.30;55.70
9542;DHT22;4809;48.224;8.572;2023-06-04T14:58:05;23.30;54.60
9542;DHT22;4809;48.224;8.572;2023-06-04T15:00:31;23.30;57.40
9542;DHT22;4809;48.224;8.572;2023-06-04T15:02:57;23.30;58.90
9542;DHT22;4809;48.224;8.572;2023-06-04T15:05:23;23.20;60.00
9542;DHT22;4809;48.224;8.572;2023-06-04T15:07:49;23.10;58.20
9542;DHT22;4809;48.224;8.572;2023-06-04T15:10:15;23.10;59.30
9542;DHT22;4809;48.224;8.572;2023-06-04T15:12:40;23.10;59.30
9542;DHT22;4809;48.224;8.572;2023-06-04T15:15:06;23.20;62.60
9542;DHT22;4809;48.224;8.572;2023-06-04T15:17:34;23.30;57.90
9542;DHT22;4809;48.224;8.572;2023-06-04T15:19:59;23.30;58.60
9542;DHT22;4809;48.224;8.572;2023-06-04T15:22:25;23.30;57.50
9542;DHT22;4809;48.224;8.572;2023-06-04T15:24:52;23.40;56.70
9542;DHT22;4809;48.224;8.572;2023-06-04T15:27:18;23.50;55.00
9542;DHT22;4809;48.224;8.572;2023-06-04T15:29:44;23.50;54.20
9542;DHT22;4809;48.224;8.572;2023-06-04T15:32:10;23.60;53.20
9542;DHT22;4809;48.224;8.572;2023-06-04T15:34:36;23.90;52.80
9542;DHT22;4809;48.224;8.572;2023-06-04T15:37:02;24.20;51.20
9542;DHT22;4809;48.224;8.572;2023-06-04T15:39:28;24.50;52.50
9542;DHT22;4809;48.224;8.572;2023-06-04T15:41:53;24.80;51.60
9542;DHT22;4809;48.224;8.572;2023-06-04T15:44:19;25.10;49.20
9542;DHT22;4809;48.224;8.572;2023-06-04T15:46:49;25.40;48.00
9542;DHT22;4809;48.224;8.572;2023-06-04T15:49:15;25.60;47.30
9542;DHT22;4809;48.224;8.572;2023-06-04T15:51:42;25.60;47.40
9542;DHT22;4809;48.224;8.572;2023-06-04T15:54:08;25.60;48.50
9542;DHT22;4809;48.224;8.572;2023-06-04T15:56:34;25.50;46.80
9542;DHT22;4809;48.224;8.572;2023-06-04T15:59:01;25.40;46.60
9542;DHT22;4809;48.224;8.572;2023-06-04T16:01:31;25.20;48.00
9542;DHT22;4809;48.224;8.572;2023-06-04T16:03:57;25.20;45.10